Time;durP1;ratioP1;P1;durP2;ratioP2;P2;SDS_P1;SDS_P2;PMS_P1;PMS_P2;Temp;Humidity;BMP_temperature;BMP_pressure;BME280_temperature;BME280_humidity;BME280_pressure;Samples;Min_cycle;Max_cycle;Signal;HPM_P1;HPM_P2
2020/12/06 00:02:22;;;;;;;38.87;21.00;;;2.60;93.10;;;;;;5025433;28;20041;-76
2020/12/06 00:04:48;;;;;;;41.30;21.87;;;2.60;93.10;;;;;;5032224;28;20034;-76
2020/12/06 00:07:13;;;;;;;39.30;21.67;;;2.60;93.10;;;;;;5047868;28;20458;-76
2020/12/06 00:09:39;;;;;;;36.00;20.90;;;2.60;93.10;;;;;;5018867;28;20038;-75
2020/12/06 00:12:05;;;;;;;35.70;20.67;;;2.60;93.10;;;;;;5032294;28;20102;-77
2020/12/06 00:14:31;;;;;;;38.43;21.80;;;2.60;93.10;;;;;;5031343;28;20046;-76
2020/12/06 00:16:57;;;;;;;37.67;21.13;;;2.60;93.30;;;;;;5012378;28;20049;-76
2020/12/06 00:19:22;;;;;;;39.07;21.33;;;2.70;93.10;;;;;;5014535;28;20046;-77
2020/12/06 00:21:48;;;;;;;36.97;20.83;;;2.70;93.10;;;;;;5027393;28;20087;-76
2020/12/06 00:24:15;;;;;;;38.97;22.03;;;2.70;93.10;;;;;;5034252;28;20045;-77
2020/12/06 00:26:42;;;;;;;34.23;20.23;;;2.70;93.10;;;;;;5026969;28;20125;-77
2020/12/06 00:29:07;;;;;;;39.27;21.27;;;2.70;93.10;;;;;;5042606;28;20068;-77
2020/12/06 00:31:33;;;;;;;38.37;21.53;;;2.70;93.10;;;;;;5035466;28;20099;-77
2020/12/06 00:34:00;;;;;;;35.00;20.53;;;2.70;93.00;;;;;;5035629;28;20041;-77
2020/12/06 00:36:25;;;;;;;37.70;20.60;;;2.70;92.90;;;;;;5026458;28;20429;-76
2020/12/06 00:38:51;;;;;;;37.13;22.07;;;2.70;92.90;;;;;;5013160;28;20041;-71
2020/12/06 00:41:19;;;;;;;37.23;20.77;;;2.70;92.90;;;;;;5018449;28;20550;-73
2020/12/06 00:43:44;;;;;;;37.73;20.63;;;2.60;93.10;;;;;;5023136;28;20045;-77
2020/12/06 00:46:11;;;;;;;40.37;21.50;;;2.60;93.00;;;;;;4993963;28;20034;-76
2020/12/06 00:48:37;;;;;;;37.37;21.23;;;2.60;93.10;;;;;;4995704;28;20502;-77
2020/12/06 00:51:05;;;;;;;37.70;20.93;;;2.70;93.20;;;;;;5013293;28;20034;-77
2020/12/06 00:53:34;;;;;;;37.70;20.87;;;2.70;93.20;;;;;;4987373;28;20107;-76
2020/12/06 00:56:00;;;;;;;38.33;21.23;;;2.70;93.10;;;;;;5014884;28;20451;-76
2020/12/06 00:58:25;;;;;;;35.80;20.23;;;2.70;93.20;;;;;;4998215;28;20042;-76
2020/12/06 01:00:51;;;;;;;38.03;21.83;;;2.70;93.10;;;;;;4978839;28;20037;-77
2020/12/06 01:03:17;;;;;;;35.47;20.73;;;2.70;93.10;;;;;;5016877;28;20479;-77
2020/12/06 01:05:43;;;;;;;40.43;21.93;;;2.70;93.00;;;;;;5023576;28;20038;-75
2020/12/06 01:08:08;;;;;;;35.27;19.67;;;2.70;93.10;;;;;;4991842;28;20029;-75
2020/12/06 01:10:34;;;;;;;37.47;20.90;;;2.70;93.20;;;;;;4997872;28;20026;-75
2020/12/06 01:13:00;;;;;;;35.77;20.03;;;2.70;93.20;;;;;;5014121;28;20474;-75
2020/12/06 01:15:26;;;;;;;35.10;19.23;;;2.70;93.20;;;;;;5007643;28;20503;-75
2020/12/06 01:17:52;;;;;;;35.37;19.60;;;2.80;93.30;;;;;;5004627;28;20456;-76
2020/12/06 01:20:18;;;;;;;36.30;20.47;;;2.80;93.30;;;;;;5016427;28;20076;-77
2020/12/06 01:22:44;;;;;;;35.77;21.00;;;2.90;93.30;;;;;;5009775;28;20061;-77
2020/12/06 01:25:09;;;;;;;33.07;19.07;;;2.90;93.30;;;;;;4983687;28;20045;-77
2020/12/06 01:27:35;;;;;;;36.23;20.07;;;2.90;93.20;;;;;;5031126;28;20045;-76
2020/12/06 01:30:01;;;;;;;32.80;18.43;;;2.90;93.20;;;;;;5002333;28;20053;-76
2020/12/06 01:32:26;;;;;;;35.50;19.87;;;3.00;93.20;;;;;;5027007;28;20044;-76
2020/12/06 01:34:52;;;;;;;32.50;18.97;;;3.00;93.20;;;;;;5014371;28;20048;-76
2020/12/06 01:37:18;;;;;;;34.00;18.93;;;3.00;93.40;;;;;;5015011;28;20437;-77
2020/12/06 01:39:43;;;;;;;36.67;19.57;;;3.00;93.10;;;;;;5008379;28;20039;-76
2020/12/06 01:42:09;;;;;;;35.37;20.73;;;3.00;93.10;;;;;;5002652;28;20038;-76
2020/12/06 01:44:35;;;;;;;35.63;19.87;;;3.00;93.10;;;;;;4977945;28;20100;-76
2020/12/06 01:47:02;;;;;;;37.70;20.03;;;3.00;93.10;;;;;;5008800;28;20046;-75
2020/12/06 01:49:35;;;;;;;36.53;20.10;;;3.00;93.10;;;;;;5003866;28;20054;-76
2020/12/06 01:52:04;;;;;;;36.47;19.77;;;3.00;93.00;;;;;;5002580;28;20046;-76
2020/12/06 01:54:31;;;;;;;37.20;19.47;;;3.00;93.00;;;;;;4992422;28;20041;-77
2020/12/06 01:56:57;;;;;;;39.00;19.50;;;3.00;92.90;;;;;;4991528;28;20484;-76
2020/12/06 01:59:23;;;;;;;36.77;20.73;;;3.00;92.80;;;;;;4990981;28;20049;-76
2020/12/06 02:01:55;;;;;;;38.03;21.13;;;2.90;92.70;;;;;;4974664;28;20046;-76
2020/12/06 02:04:22;;;;;;;36.77;20.20;;;2.90;92.80;;;;;;4992133;28;20042;-76
2020/12/06 02:06:47;;;;;;;36.27;20.30;;;2.80;92.80;;;;;;4974962;28;20053;-77
2020/12/06 02:09:14;;;;;;;38.10;22.03;;;2.80;92.90;;;;;;4990992;28;20034;-76
2020/12/06 02:11:39;;;;;;;40.57;21.30;;;2.80;93.20;;;;;;4974274;28;20039;-77
2020/12/06 02:14:05;;;;;;;39.20;21.50;;;2.90;93.10;;;;;;5014882;28;20137;-75
2020/12/06 02:16:31;;;;;;;40.70;22.03;;;2.90;93.10;;;;;;5010198;28;20030;-76
2020/12/06 02:18:57;;;;;;;39.80;21.50;;;2.90;93.00;;;;;;4978225;28;20446;-76
2020/12/06 02:21:23;;;;;;;39.20;21.23;;;2.90;93.00;;;;;;5011820;28;20096;-77
2020/12/06 02:23:48;;;;;;;36.93;20.97;;;2.90;93.20;;;;;;4993549;28;20072;-76
2020/12/06 02:26:14;;;;;;;37.43;21.00;;;2.90;93.00;;;;;;5011925;28;20042;-76
2020/12/06 02:28:40;;;;;;;38.43;20.73;;;3.00;93.00;;;;;;5014128;28;20029;-77
2020/12/06 02:31:06;;;;;;;34.50;20.53;;;3.00;93.00;;;;;;5032069;28;20040;-76
2020/12/06 02:33:31;;;;;;;35.00;20.30;;;3.00;93.00;;;;;;4998735;28;20034;-77
2020/12/06 02:35:57;;;;;;;33.20;19.77;;;3.00;93.10;;;;;;5010252;28;20038;-77
2020/12/06 02:38:23;;;;;;;37.93;21.53;;;3.00;92.90;;;;;;5012034;28;20030;-76
2020/12/06 02:40:48;;;;;;;38.07;20.80;;;3.00;93.00;;;;;;4961532;28;20462;-76
2020/12/06 02:43:14;;;;;;;37.97;20.77;;;3.10;93.10;;;;;;5009496;28;20038;-77
2020/12/06 02:45:40;;;;;;;36.77;20.67;;;3.00;93.00;;;;;;5009277;28;20034;-77
2020/12/06 02:48:06;;;;;;;36.73;21.17;;;3.00;93.00;;;;;;4993566;28;20526;-77
2020/12/06 02:50:32;;;;;;;37.93;21.20;;;3.10;92.90;;;;;;5011916;28;20508;-77
2020/12/06 02:52:57;;;;;;;35.20;19.83;;;3.10;93.00;;;;;;5010794;28;20034;-76
2020/12/06 02:55:27;;;;;;;34.40;19.80;;;3.10;93.00;;;;;;5009302;28;20044;-77
2020/12/06 02:57:53;;;;;;;34.53;19.47;;;3.10;93.30;;;;;;4993928;28;20125;-76
2020/12/06 03:00:20;;;;;;;37.90;21.13;;;3.10;93.00;;;;;;4992962;28;20128;-76
2020/12/06 03:02:45;;;;;;;36.17;20.07;;;3.20;93.00;;;;;;5009455;28;20418;-76
2020/12/06 03:05:11;;;;;;;36.53;20.50;;;3.20;92.90;;;;;;5004254;28;20042;-77
2020/12/06 03:07:37;;;;;;;34.23;19.67;;;3.20;93.00;;;;;;5011526;28;20046;-77
2020/12/06 03:10:06;;;;;;;33.87;19.97;;;3.20;93.20;;;;;;5026298;28;20057;-77
2020/12/06 03:12:34;;;;;;;34.20;18.67;;;3.20;92.90;;;;;;4982656;28;20041;-77
2020/12/06 03:15:00;;;;;;;35.53;19.87;;;3.30;93.00;;;;;;5014455;28;20038;-76
2020/12/06 03:17:26;;;;;;;35.83;20.07;;;3.30;93.00;;;;;;4968549;28;20117;-76
2020/12/06 03:19:52;;;;;;;35.63;19.70;;;3.40;93.00;;;;;;4951310;28;20567;-76
2020/12/06 03:22:17;;;;;;;34.43;18.93;;;3.40;93.00;;;;;;4998669;28;20030;-76
2020/12/06 03:24:43;;;;;;;33.70;19.53;;;3.40;93.00;;;;;;4992062;28;20030;-76
2020/12/06 03:27:09;;;;;;;34.73;19.63;;;3.40;92.90;;;;;;4994162;28;20092;-76
2020/12/06 03:29:35;;;;;;;34.93;19.43;;;3.40;92.90;;;;;;4997919;28;20052;-76
2020/12/06 03:32:01;;;;;;;33.53;19.70;;;3.50;92.90;;;;;;4988744;28;20038;-77
2020/12/06 03:34:26;;;;;;;34.53;19.60;;;3.50;92.90;;;;;;4984110;28;20064;-77
2020/12/06 03:36:52;;;;;;;34.03;19.43;;;3.50;92.90;;;;;;5003149;28;20030;-76
2020/12/06 03:39:18;;;;;;;33.87;19.30;;;3.50;92.90;;;;;;4985127;28;20034;-76
2020/12/06 03:41:47;;;;;;;35.23;19.50;;;3.50;92.80;;;;;;5018369;28;20435;-76
2020/12/06 03:44:13;;;;;;;35.90;19.97;;;3.50;92.90;;;;;;5002532;28;20034;-76
2020/12/06 03:46:39;;;;;;;34.50;19.97;;;3.50;92.80;;;;;;5011176;28;20151;-76
2020/12/06 03:49:05;;;;;;;35.40;21.00;;;3.50;92.80;;;;;;5030472;28;21168;-76
2020/12/06 03:51:30;;;;;;;34.40;19.87;;;3.50;92.90;;;;;;5029290;28;20029;-76
2020/12/06 03:53:56;;;;;;;35.30;20.10;;;3.50;92.80;;;;;;5028295;28;20501;-76
2020/12/06 03:56:22;;;;;;;36.57;19.93;;;3.50;92.80;;;;;;4996329;28;20045;-76
2020/12/06 03:58:47;;;;;;;36.87;21.67;;;3.50;92.80;;;;;;4996199;28;20037;-76
2020/12/06 04:01:13;;;;;;;34.03;20.67;;;3.50;92.80;;;;;;5029860;28;20434;-76
2020/12/06 04:03:39;;;;;;;38.47;20.77;;;3.50;92.80;;;;;;5011900;28;20121;-76
2020/12/06 04:06:04;;;;;;;39.37;20.80;;;3.50;92.80;;;;;;5028616;28;20983;-76
2020/12/06 04:08:30;;;;;;;39.43;21.03;;;3.60;92.90;;;;;;5030274;28;20038;-77
2020/12/06 04:10:56;;;;;;;37.87;21.40;;;3.50;92.90;;;;;;4996408;28;20060;-77
2020/12/06 04:13:22;;;;;;;38.07;21.50;;;3.60;92.90;;;;;;5029672;28;20034;-77
2020/12/06 04:15:47;;;;;;;39.30;21.33;;;3.60;92.90;;;;;;5016523;28;20125;-76
2020/12/06 04:18:13;;;;;;;39.70;22.17;;;3.60;92.90;;;;;;5034028;28;20120;-76
2020/12/06 04:20:39;;;;;;;38.60;21.70;;;3.60;92.80;;;;;;5032793;28;20040;-77
2020/12/06 04:23:04;;;;;;;37.83;21.73;;;3.70;92.90;;;;;;5016020;28;20030;-77
2020/12/06 04:25:30;;;;;;;36.53;20.90;;;3.60;92.90;;;;;;5032638;28;20033;-76
2020/12/06 04:27:56;;;;;;;35.80;20.00;;;3.70;92.90;;;;;;5033602;28;20099;-73
2020/12/06 04:30:21;;;;;;;38.43;21.00;;;3.70;92.90;;;;;;5033873;28;20133;-73
2020/12/06 04:32:47;;;;;;;38.93;22.20;;;3.70;92.90;;;;;;5032326;28;20037;-73
2020/12/06 04:35:13;;;;;;;40.60;22.13;;;3.70;92.90;;;;;;5016558;28;20033;-73
2020/12/06 04:37:39;;;;;;;45.43;22.73;;;3.70;92.90;;;;;;5016147;28;20060;-73
2020/12/06 04:40:04;;;;;;;39.47;21.93;;;3.80;92.90;;;;;;5033111;28;20045;-73
2020/12/06 04:42:31;;;;;;;41.37;23.27;;;3.80;92.90;;;;;;5015226;28;20037;-73
2020/12/06 04:44:57;;;;;;;39.67;22.30;;;3.80;92.90;;;;;;5032923;28;20391;-73
2020/12/06 04:47:46;;;;;;;39.80;22.43;;;3.80;92.90;;;;;;5031839;28;20029;-73
2020/12/06 04:50:19;;;;;;;42.90;24.10;;;3.80;92.90;;;;;;5032219;28;20593;-73
2020/12/06 04:52:54;;;;;;;44.07;24.50;;;3.80;92.90;;;;;;5032792;28;20049;-73
2020/12/06 04:55:24;;;;;;;41.43;23.30;;;3.90;93.00;;;;;;5033237;28;20057;-73
2020/12/06 04:57:53;;;;;;;42.30;23.43;;;3.90;92.90;;;;;;5033582;28;20128;-73
2020/12/06 05:00:26;;;;;;;41.23;24.10;;;3.90;92.90;;;;;;5033116;28;20038;-73
2020/12/06 05:02:56;;;;;;;46.30;25.63;;;3.90;92.90;;;;;;5032687;28;20041;-73
2020/12/06 05:05:22;;;;;;;45.13;24.45;;;3.90;92.90;;;;;;5032923;28;20564;-73
2020/12/06 05:07:50;;;;;;;46.23;24.40;;;4.00;93.20;;;;;;5033523;28;20041;-76
2020/12/06 05:10:17;;;;;;;45.67;25.40;;;4.00;93.00;;;;;;5031619;28;20037;-77
2020/12/06 05:12:42;;;;;;;42.27;23.97;;;4.00;93.00;;;;;;5032438;28;20088;-76
2020/12/06 05:15:08;;;;;;;41.60;23.07;;;4.00;93.00;;;;;;5014952;28;20528;-76
2020/12/06 05:17:34;;;;;;;42.37;24.10;;;4.10;93.00;;;;;;5032569;28;20029;-76
2020/12/06 05:20:11;;;;;;;43.47;24.47;;;4.10;92.90;;;;;;5033262;28;20052;-76
2020/12/06 05:22:45;;;;;;;43.97;24.27;;;4.10;92.90;;;;;;5014682;28;20042;-76
2020/12/06 05:25:14;;;;;;;39.70;23.57;;;4.10;92.90;;;;;;5032725;28;20037;-76
2020/12/06 05:27:41;;;;;;;38.83;22.33;;;4.10;92.90;;;;;;5033040;28;20044;-76
2020/12/06 05:30:07;;;;;;;39.67;22.70;;;4.20;92.90;;;;;;5032358;28;20518;-76
2020/12/06 05:32:33;;;;;;;42.83;24.43;;;4.20;92.90;;;;;;5032331;28;20034;-76
2020/12/06 05:35:00;;;;;;;45.10;25.43;;;4.30;92.90;;;;;;5031976;28;20041;-76
2020/12/06 05:37:27;;;;;;;46.83;24.73;;;4.30;92.90;;;;;;5033333;28;20041;-76
2020/12/06 05:40:12;;;;;;;43.57;24.80;;;4.30;92.90;;;;;;5031407;28;20052;-76
2020/12/06 05:42:40;;;;;;;46.70;24.63;;;4.30;92.90;;;;;;5031948;28;20041;-76
2020/12/06 05:45:07;;;;;;;46.40;24.27;;;4.30;92.90;;;;;;5031548;28;20188;-75
2020/12/06 05:47:33;;;;;;;46.50;25.70;;;4.30;92.90;;;;;;5032834;28;20107;-77
2020/12/06 05:49:59;;;;;;;46.77;25.63;;;4.30;92.90;;;;;;5032083;28;20042;-76
2020/12/06 05:52:28;;;;;;;45.60;24.97;;;4.30;92.90;;;;;;5031742;28;20660;-76
2020/12/06 05:54:56;;;;;;;39.77;22.20;;;4.40;92.90;;;;;;5031774;28;20042;-76
2020/12/06 05:57:26;;;;;;;43.67;23.80;;;4.30;92.90;;;;;;5032059;28;20057;-76
2020/12/06 05:59:55;;;;;;;44.38;24.73;;;4.40;92.90;;;;;;5031957;28;20072;-77
2020/12/06 06:02:22;;;;;;;44.37;24.47;;;4.40;92.90;;;;;;5030027;28;20037;-76
2020/12/06 06:04:49;;;;;;;41.77;23.17;;;4.40;92.90;;;;;;5014496;28;20067;-77
2020/12/06 06:07:22;;;;;;;44.53;24.03;;;4.40;92.90;;;;;;5031802;28;20063;-77
2020/12/06 06:10:00;;;;;;;42.40;23.00;;;4.50;92.90;;;;;;5032299;28;20046;-77
2020/12/06 06:12:30;;;;;;;42.40;23.37;;;4.50;93.00;;;;;;5029971;28;20474;-76
2020/12/06 06:14:59;;;;;;;45.17;24.77;;;4.50;93.00;;;;;;5032161;28;20040;-76
2020/12/06 06:17:27;;;;;;;41.90;23.67;;;4.50;93.10;;;;;;5030343;28;20096;-76
2020/12/06 06:19:53;;;;;;;42.07;23.30;;;4.50;92.90;;;;;;5032094;28;20080;-76
2020/12/06 06:22:41;;;;;;;41.83;23.27;;;4.50;92.90;;;;;;5030937;28;20053;-76
2020/12/06 06:25:09;;;;;;;46.27;24.30;;;4.50;92.90;;;;;;5030575;28;20033;-76
2020/12/06 06:27:37;;;;;;;44.47;24.23;;;4.60;92.90;;;;;;5029980;28;20045;-77
2020/12/06 06:30:05;;;;;;;45.77;24.47;;;4.60;92.90;;;;;;5030649;28;20562;-76
2020/12/06 06:32:31;;;;;;;47.17;25.67;;;4.60;92.90;;;;;;5029609;28;20121;-76
2020/12/06 06:35:08;;;;;;;48.60;25.80;;;4.60;92.90;;;;;;5030418;28;20041;-76
2020/12/06 06:37:36;;;;;;;45.40;25.03;;;4.70;92.90;;;;;;5030165;28;20037;-76
2020/12/06 06:40:09;;;;;;;48.43;25.00;;;4.70;93.00;;;;;;5031701;28;20041;-77
2020/12/06 06:42:37;;;;;;;44.27;24.47;;;4.60;92.90;;;;;;5029653;28;20048;-76
2020/12/06 06:45:11;;;;;;;47.40;24.97;;;4.70;92.90;;;;;;5030789;28;20081;-76
2020/12/06 06:47:39;;;;;;;49.33;26.57;;;4.70;93.00;;;;;;5031423;28;20037;-76
2020/12/06 06:50:10;;;;;;;46.57;25.43;;;4.70;92.90;;;;;;5031455;28;20029;-76
2020/12/06 06:52:40;;;;;;;44.83;25.65;;;4.80;93.00;;;;;;5030821;28;20041;-76
2020/12/06 06:55:06;;;;;;;44.63;24.60;;;4.80;93.00;;;;;;5031191;28;20046;-76
2020/12/06 06:57:32;;;;;;;47.17;25.13;;;4.80;92.90;;;;;;5030025;28;20048;-77
2020/12/06 07:00:00;;;;;;;48.67;25.43;;;4.80;92.90;;;;;;5030747;28;20049;-76
2020/12/06 07:02:45;;;;;;;45.37;24.67;;;4.80;92.90;;;;;;5030529;28;20111;-76
2020/12/06 07:05:13;;;;;;;45.00;25.10;;;4.80;92.90;;;;;;5030731;28;20414;-76
2020/12/06 07:07:39;;;;;;;44.50;24.63;;;4.80;92.90;;;;;;5030961;28;20078;-76
2020/12/06 07:10:09;;;;;;;44.10;24.70;;;4.80;92.90;;;;;;5030715;28;20850;-76
2020/12/06 07:12:44;;;;;;;49.70;24.70;;;4.80;92.90;;;;;;5028934;28;20087;-76
2020/12/06 07:15:10;;;;;;;49.10;26.13;;;4.80;92.90;;;;;;5030670;28;20129;-76
2020/12/06 07:17:37;;;;;;;47.77;25.17;;;4.90;92.90;;;;;;5029996;28;20076;-76
2020/12/06 07:20:05;;;;;;;47.67;25.60;;;4.80;92.90;;;;;;5030179;28;20057;-76
2020/12/06 07:22:31;;;;;;;46.30;25.90;;;4.80;92.90;;;;;;4996669;28;20116;-76
2020/12/06 07:24:57;;;;;;;46.70;25.17;;;4.80;92.90;;;;;;5013705;28;20095;-76
2020/12/06 07:27:22;;;;;;;48.23;27.57;;;4.80;92.90;;;;;;5029540;28;20502;-76
2020/12/06 07:29:48;;;;;;;44.13;25.00;;;4.80;92.90;;;;;;4997176;28;20041;-76
2020/12/06 07:32:14;;;;;;;46.83;25.87;;;4.80;92.90;;;;;;5030497;28;20040;-76
2020/12/06 07:34:40;;;;;;;43.57;25.07;;;4.80;92.90;;;;;;5030894;28;20057;-76
2020/12/06 07:37:06;;;;;;;48.97;26.83;;;4.80;92.90;;;;;;5013736;28;20461;-76
2020/12/06 07:39:31;;;;;;;45.77;26.10;;;4.80;92.90;;;;;;5030782;28;20034;-76
2020/12/06 07:41:57;;;;;;;45.93;25.47;;;4.80;93.00;;;;;;5028435;28;20043;-76
2020/12/06 07:44:23;;;;;;;51.07;27.10;;;4.80;93.00;;;;;;5029329;28;20041;-76
2020/12/06 07:47:01;;;;;;;43.47;24.13;;;4.80;93.00;;;;;;5028197;28;20067;-76
2020/12/06 07:49:26;;;;;;;47.90;26.07;;;4.90;93.10;;;;;;5030426;28;20036;-76
2020/12/06 07:51:52;;;;;;;45.97;25.77;;;4.90;93.10;;;;;;5028110;28;20033;-77
2020/12/06 07:54:18;;;;;;;49.57;26.97;;;4.90;93.10;;;;;;4996417;28;20029;-77
2020/12/06 07:56:48;;;;;;;54.30;26.63;;;4.90;93.00;;;;;;5029899;28;20041;-76
2020/12/06 07:59:24;;;;;;;51.63;26.77;;;4.90;93.10;;;;;;5029372;28;20448;-76
2020/12/06 08:01:52;;;;;;;44.70;26.23;;;4.90;93.10;;;;;;5027993;28;20049;-76
2020/12/06 08:04:30;;;;;;;45.60;25.93;;;5.00;93.10;;;;;;5028916;28;20064;-76
2020/12/06 08:07:02;;;;;;;52.27;26.67;;;4.90;93.00;;;;;;5028483;28;20552;-76
2020/12/06 08:09:31;;;;;;;46.73;25.80;;;5.00;93.10;;;;;;5030338;28;20125;-77
2020/12/06 08:12:02;;;;;;;48.27;25.70;;;5.00;93.10;;;;;;5029189;28;20065;-77
2020/12/06 08:14:27;;;;;;;46.10;25.98;;;5.00;93.10;;;;;;5030303;28;20034;-76
2020/12/06 08:17:00;;;;;;;47.47;25.17;;;5.00;93.10;;;;;;5029176;28;20037;-75
2020/12/06 08:19:26;;;;;;;45.17;25.07;;;5.10;93.10;;;;;;5029499;28;20494;-72
2020/12/06 08:22:01;;;;;;;45.90;25.33;;;5.10;93.10;;;;;;5029966;28;20099;-73
2020/12/06 08:24:31;;;;;;;45.77;25.50;;;5.10;93.10;;;;;;5030352;28;20467;-73
2020/12/06 08:26:59;;;;;;;44.17;24.70;;;5.10;93.10;;;;;;5029141;28;20048;-73
2020/12/06 08:29:42;;;;;;;46.67;25.70;;;5.10;93.20;;;;;;5030118;28;20048;-73
2020/12/06 08:32:08;;;;;;;42.50;23.83;;;5.20;93.20;;;;;;5044657;28;20099;-73
2020/12/06 08:34:34;;;;;;;44.57;24.77;;;5.20;93.20;;;;;;5032134;28;20453;-73
2020/12/06 08:37:17;;;;;;;41.33;23.20;;;5.30;93.30;;;;;;5040345;28;20033;-74
2020/12/06 08:39:45;;;;;;;41.17;23.43;;;5.30;93.30;;;;;;5028623;28;20042;-73
2020/12/06 08:42:19;;;;;;;42.47;24.73;;;5.40;93.30;;;;;;5010877;28;20495;-73
2020/12/06 08:44:57;;;;;;;39.23;23.00;;;5.40;93.30;;;;;;5035866;28;20049;-72
2020/12/06 08:47:24;;;;;;;44.73;25.47;;;5.40;93.30;;;;;;5035895;28;20041;-74
2020/12/06 08:50:05;;;;;;;45.53;23.70;;;5.50;93.30;;;;;;5035129;28;20052;-73
2020/12/06 08:52:30;;;;;;;44.15;25.00;;;5.50;93.20;;;;;;5034764;28;20089;-73
2020/12/06 08:54:58;;;;;;;44.13;24.67;;;5.50;93.30;;;;;;5035209;28;20572;-72
2020/12/06 08:57:26;;;;;;;44.00;25.27;;;5.60;93.30;;;;;;5038397;28;20040;-73
2020/12/06 08:59:52;;;;;;;44.27;25.30;;;5.60;93.30;;;;;;5034663;28;20033;-73
2020/12/06 09:02:23;;;;;;;47.60;27.50;;;5.60;93.30;;;;;;5037269;28;20041;-73
2020/12/06 09:04:49;;;;;;;43.50;24.20;;;5.70;93.30;;;;;;5035702;28;20148;-73
2020/12/06 09:07:15;;;;;;;43.73;24.73;;;5.70;93.30;;;;;;5037858;28;20064;-73
2020/12/06 09:09:41;;;;;;;43.37;23.70;;;5.80;93.30;;;;;;5039017;28;20076;-73
2020/12/06 09:12:07;;;;;;;45.93;24.80;;;5.90;93.30;;;;;;5037592;28;20033;-73
2020/12/06 09:14:33;;;;;;;44.47;23.70;;;5.90;93.20;;;;;;5039266;28;20033;-73
2020/12/06 09:16:58;;;;;;;42.33;23.73;;;5.90;93.20;;;;;;5043797;28;20034;-75
2020/12/06 09:19:24;;;;;;;40.70;22.47;;;5.90;93.10;;;;;;5040731;28;20113;-76
2020/12/06 09:21:50;;;;;;;44.07;24.27;;;6.00;93.20;;;;;;5038463;28;20029;-76
2020/12/06 09:24:15;;;;;;;41.27;22.80;;;6.00;93.20;;;;;;5035537;28;20632;-76
2020/12/06 09:26:41;;;;;;;41.57;23.43;;;6.00;93.20;;;;;;5042026;28;20529;-76
2020/12/06 09:29:07;;;;;;;40.13;22.33;;;6.10;93.10;;;;;;5040257;28;20045;-77
2020/12/06 09:31:33;;;;;;;41.47;21.97;;;6.10;93.10;;;;;;5037267;28;20037;-76
2020/12/06 09:33:58;;;;;;;41.30;23.30;;;6.10;93.10;;;;;;5035614;28;20026;-76
2020/12/06 09:36:24;;;;;;;40.03;22.93;;;6.20;93.20;;;;;;5028611;28;20037;-76
2020/12/06 09:38:50;;;;;;;39.00;22.60;;;6.20;93.20;;;;;;5047398;28;20033;-76
2020/12/06 09:41:16;;;;;;;42.57;23.07;;;6.30;93.10;;;;;;5028213;28;20049;-76
2020/12/06 09:43:43;;;;;;;41.60;21.77;;;6.30;93.10;;;;;;5046710;28;20041;-76
2020/12/06 09:46:09;;;;;;;39.10;22.37;;;6.40;93.10;;;;;;5012398;28;20068;-76
2020/12/06 09:48:39;;;;;;;37.37;21.80;;;6.40;93.10;;;;;;5038905;28;20125;-77
2020/12/06 09:51:06;;;;;;;40.23;21.67;;;6.50;93.10;;;;;;5044632;28;20041;-73
2020/12/06 09:53:32;;;;;;;42.53;23.53;;;6.50;93.00;;;;;;5047650;28;20048;-73
2020/12/06 09:55:58;;;;;;;39.60;21.13;;;6.60;93.00;;;;;;5039932;28;20568;-73
2020/12/06 09:58:24;;;;;;;40.20;23.17;;;6.60;92.90;;;;;;5045419;28;20037;-71
2020/12/06 10:00:49;;;;;;;38.80;22.27;;;6.70;92.90;;;;;;5048221;28;20509;-73
2020/12/06 10:03:15;;;;;;;40.47;22.60;;;6.70;92.90;;;;;;5036831;28;20040;-72
2020/12/06 10:05:42;;;;;;;39.10;22.23;;;6.70;92.80;;;;;;5037239;28;20576;-73
2020/12/06 10:08:08;;;;;;;38.63;21.23;;;6.80;92.80;;;;;;5038148;28;20494;-73
2020/12/06 10:10:34;;;;;;;37.40;20.73;;;6.80;92.80;;;;;;5033312;28;20044;-73
2020/12/06 10:13:00;;;;;;;43.40;24.30;;;6.80;93.00;;;;;;5027682;28;20393;-73
2020/12/06 10:15:26;;;;;;;42.60;23.30;;;6.90;92.80;;;;;;5028616;28;20057;-74
2020/12/06 10:17:52;;;;;;;43.40;23.73;;;6.90;92.70;;;;;;5026019;28;20078;-72
2020/12/06 10:20:20;;;;;;;41.60;23.60;;;6.90;92.70;;;;;;5028210;28;20115;-71
2020/12/06 10:22:46;;;;;;;40.97;22.33;;;6.90;92.60;;;;;;5040538;28;20045;-71
2020/12/06 10:25:12;;;;;;;40.27;22.97;;;7.00;92.60;;;;;;5025486;28;20052;-72
2020/12/06 10:27:38;;;;;;;40.97;22.73;;;7.00;92.70;;;;;;5028396;28;20041;-74
2020/12/06 10:30:05;;;;;;;40.63;23.17;;;7.00;92.60;;;;;;5036667;28;20033;-72
2020/12/06 10:32:31;;;;;;;40.27;22.20;;;7.10;92.60;;;;;;5039788;28;20038;-73
2020/12/06 10:34:57;;;;;;;38.93;22.00;;;7.10;92.60;;;;;;5042606;28;20152;-73
2020/12/06 10:37:23;;;;;;;38.27;22.40;;;7.20;92.50;;;;;;5036115;28;20116;-72
2020/12/06 10:39:48;;;;;;;41.07;23.60;;;7.10;92.40;;;;;;5041315;28;20041;-71
2020/12/06 10:42:15;;;;;;;39.80;22.63;;;7.20;92.30;;;;;;5038596;28;20041;-73
2020/12/06 10:44:40;;;;;;;41.93;23.87;;;7.10;92.20;;;;;;5042590;28;20043;-73
2020/12/06 10:47:06;;;;;;;40.73;23.37;;;7.10;92.20;;;;;;5040379;28;20502;-72
2020/12/06 10:49:32;;;;;;;45.70;25.07;;;7.10;92.20;;;;;;5043025;28;20087;-73
2020/12/06 10:51:57;;;;;;;41.10;24.33;;;7.10;92.20;;;;;;5037703;28;20668;-73
2020/12/06 10:54:23;;;;;;;42.30;23.97;;;7.00;92.10;;;;;;5040212;28;20119;-73
2020/12/06 10:56:49;;;;;;;43.90;24.60;;;7.00;92.00;;;;;;5041447;28;20033;-73
2020/12/06 10:59:15;;;;;;;44.07;24.63;;;7.00;92.00;;;;;;5028260;28;20033;-73
2020/12/06 11:01:40;;;;;;;45.87;25.23;;;7.00;92.00;;;;;;5041935;28;20044;-73
2020/12/06 11:04:06;;;;;;;42.33;24.17;;;6.90;92.10;;;;;;5050244;28;20029;-73
2020/12/06 11:06:33;;;;;;;41.33;22.83;;;6.90;92.10;;;;;;5026492;28;20041;-73
2020/12/06 11:08:59;;;;;;;42.60;24.80;;;7.00;92.10;;;;;;5039527;28;20041;-73
2020/12/06 11:11:26;;;;;;;43.37;25.07;;;7.00;92.10;;;;;;5047101;28;20052;-73
2020/12/06 11:13:52;;;;;;;44.77;25.63;;;7.00;92.10;;;;;;5031314;28;20394;-71
2020/12/06 11:16:20;;;;;;;44.80;24.80;;;7.10;91.90;;;;;;5028054;28;20486;-72
2020/12/06 11:18:47;;;;;;;42.33;24.87;;;7.10;91.90;;;;;;5037542;28;20072;-72
2020/12/06 11:21:18;;;;;;;42.07;24.40;;;7.10;91.90;;;;;;5038729;28;20040;-73
2020/12/06 11:23:45;;;;;;;42.33;24.83;;;7.10;91.90;;;;;;5031136;28;20084;-73
2020/12/06 11:26:15;;;;;;;39.63;24.03;;;7.10;91.90;;;;;;5045334;28;20603;-73
2020/12/06 11:28:41;;;;;;;41.22;24.27;;;7.20;91.90;;;;;;5037660;28;20064;-73
2020/12/06 11:31:09;;;;;;;43.90;25.23;;;7.20;91.80;;;;;;5039448;28;20048;-73
2020/12/06 11:33:34;;;;;;;45.97;25.10;;;7.20;91.70;;;;;;5042905;28;20036;-73
2020/12/06 11:36:00;;;;;;;46.17;24.27;;;7.20;91.60;;;;;;5031738;28;20033;-73
2020/12/06 11:38:26;;;;;;;40.87;23.90;;;7.20;91.60;;;;;;5044045;28;20491;-74
2020/12/06 11:40:52;;;;;;;39.73;24.30;;;7.20;91.50;;;;;;5038838;28;20399;-73
2020/12/06 11:43:17;;;;;;;43.93;24.53;;;7.20;91.50;;;;;;5036962;28;20096;-73
2020/12/06 11:45:43;;;;;;;44.00;25.43;;;7.10;91.40;;;;;;5045539;28;20037;-74
2020/12/06 11:48:09;;;;;;;42.43;25.27;;;7.10;91.30;;;;;;5031380;28;20048;-73
2020/12/06 11:50:35;;;;;;;43.27;24.57;;;7.10;91.30;;;;;;5042439;28;20545;-73
2020/12/06 11:53:02;;;;;;;43.53;25.93;;;7.10;91.20;;;;;;5022458;28;20038;-73
2020/12/06 11:55:28;;;;;;;43.60;24.70;;;7.00;91.20;;;;;;5020390;28;20042;-73
2020/12/06 11:57:54;;;;;;;42.80;24.50;;;7.00;91.10;;;;;;5027862;28;20482;-73
2020/12/06 12:00:20;;;;;;;46.03;26.13;;;7.00;91.10;;;;;;5037502;28;20045;-73
2020/12/06 12:02:45;;;;;;;44.37;25.90;;;6.90;91.10;;;;;;5036551;28;20041;-73
2020/12/06 12:05:12;;;;;;;42.10;23.07;;;6.90;91.00;;;;;;5037643;28;20120;-73
2020/12/06 12:07:38;;;;;;;43.27;25.40;;;6.90;91.00;;;;;;5038387;28;20414;-73
2020/12/06 12:10:04;;;;;;;44.23;25.43;;;6.80;91.00;;;;;;5032047;28;20041;-74
2020/12/06 12:12:30;;;;;;;43.20;25.70;;;6.90;91.20;;;;;;5028297;28;20040;-73
2020/12/06 12:14:56;;;;;;;43.40;24.80;;;6.90;91.20;;;;;;5028148;28;20033;-73
2020/12/06 12:17:22;;;;;;;42.53;24.93;;;7.00;91.10;;;;;;5027478;28;20072;-72
2020/12/06 12:19:48;;;;;;;41.93;24.20;;;7.00;91.10;;;;;;5028956;28;20045;-73
2020/12/06 12:22:14;;;;;;;42.80;24.83;;;6.90;91.00;;;;;;5027328;28;20033;-71
2020/12/06 12:24:40;;;;;;;41.97;23.83;;;6.90;90.90;;;;;;5027009;28;20487;-72
2020/12/06 12:27:05;;;;;;;44.63;25.63;;;6.90;90.90;;;;;;5027322;28;20045;-73
2020/12/06 12:29:31;;;;;;;43.53;24.90;;;6.90;90.90;;;;;;5027535;28;20041;-72
2020/12/06 12:31:57;;;;;;;41.70;24.47;;;6.90;90.90;;;;;;5026438;28;20052;-74
2020/12/06 12:34:23;;;;;;;41.73;25.10;;;6.80;90.90;;;;;;5030898;28;20064;-72
2020/12/06 12:36:48;;;;;;;42.97;24.43;;;6.80;90.90;;;;;;5014806;28;20033;-72